Time;durP1;ratioP1;P1;durP2;ratioP2;P2;SDS_P1;SDS_P2;PMS_P1;PMS_P2;Temp;Humidity;BMP_temperature;BMP_pressure;BME280_temperature;BME280_humidity;BME280_pressure;Samples;Min_cycle;Max_cycle;Signal;HPM_P1;HPM_P2
2021/11/10 00:01:58;;;;;;;7.70;3.38;;;;;;;18.94;40.86;102451.19;5131772;28;20031;-66
2021/11/10 00:04:23;;;;;;;8.02;3.65;;;;;;;18.92;41.14;102443.34;5132870;28;20086;-66
2021/11/10 00:06:49;;;;;;;9.85;4.40;;;;;;;18.91;41.06;102440.78;5131887;28;20035;-66
2021/11/10 00:09:15;;;;;;;6.82;3.60;;;;;;;18.90;40.87;102437.31;5132325;28;20015;-66
2021/11/10 00:11:40;;;;;;;5.00;2.80;;;;;;;18.87;41.18;102436.63;5132680;28;20050;-67
2021/11/10 00:14:05;;;;;;;7.18;3.70;;;;;;;18.84;41.08;102430.59;5131670;28;20035;-66
2021/11/10 00:16:31;;;;;;;6.95;3.50;;;;;;;18.83;40.93;102434.16;5132840;28;20064;-66
2021/11/10 00:18:56;;;;;;;7.10;3.40;;;;;;;18.82;41.06;102435.09;5132512;28;20027;-65
2021/11/10 00:21:26;;;;;;;6.45;3.38;;;;;;;18.81;40.98;102436.00;5131902;28;20015;-66
2021/11/10 00:23:52;;;;;;;6.97;3.20;;;;;;;18.79;41.17;102432.63;5132579;28;20049;-66
2021/11/10 00:26:18;;;;;;;6.30;3.55;;;;;;;18.78;41.15;102432.72;5132925;27;20073;-65
2021/11/10 00:28:44;;;;;;;5.95;3.28;;;;;;;18.77;40.82;102425.72;5135872;27;20027;-66
2021/11/10 00:31:09;;;;;;;6.38;3.33;;;;;;;18.76;40.84;102431.97;5136134;27;20114;-65
2021/11/10 00:33:35;;;;;;;8.10;3.47;;;;;;;18.73;41.04;102425.06;5136434;27;20106;-65
2021/11/10 00:36:04;;;;;;;6.82;3.58;;;;;;;18.74;40.77;102423.25;5135272;27;20031;-66
2021/11/10 00:38:30;;;;;;;8.27;3.80;;;;;;;18.69;40.93;102423.53;5136105;27;20415;-65
2021/11/10 00:40:55;;;;;;;8.05;3.90;;;;;;;18.71;40.73;102423.44;5136352;27;20079;-66
2021/11/10 00:43:21;;;;;;;6.60;3.78;;;;;;;18.68;40.66;102425.31;5135329;27;20355;-66
2021/11/10 00:45:46;;;;;;;6.95;3.80;;;;;;;18.67;40.71;102418.38;5136282;27;20027;-65
2021/11/10 00:48:11;;;;;;;8.25;3.67;;;;;;;18.65;40.68;102392.97;5135730;27;20023;-66
2021/11/10 00:50:38;;;;;;;10.23;4.70;;;;;;;18.63;40.85;102392.22;5135280;27;20063;-67
2021/11/10 00:53:05;;;;;;;6.82;3.50;;;;;;;18.62;40.63;102378.16;5135622;27;20023;-66
2021/11/10 00:55:31;;;;;;;7.30;3.45;;;;;;;18.62;40.51;102374.66;5136265;27;20046;-65
2021/11/10 00:57:56;;;;;;;6.32;3.67;;;;;;;18.60;40.72;102374.75;5135263;27;20019;-66
2021/11/10 01:00:22;;;;;;;6.15;3.83;;;;;;;18.59;40.93;102377.50;5136137;27;20118;-66
2021/11/10 01:02:48;;;;;;;8.18;3.53;;;;;;;18.58;40.52;102379.28;5135991;27;20047;-65
2021/11/10 01:05:13;;;;;;;5.88;3.50;;;;;;;18.57;40.80;102374.09;5134643;27;20435;-65
2021/11/10 01:07:45;;;;;;;7.18;3.58;;;;;;;18.57;40.73;102379.38;5135805;27;20065;-66
2021/11/10 01:10:12;;;;;;;8.10;3.72;;;;;;;18.55;40.57;102382.09;5134397;27;20319;-66
2021/11/10 01:12:37;;;;;;;7.20;3.60;;;;;;;18.54;40.79;102379.56;5135864;27;20031;-66
2021/11/10 01:15:05;;;;;;;8.05;4.18;;;;;;;18.53;40.75;102365.50;5135533;27;20042;-66
2021/11/10 01:17:30;;;;;;;7.43;3.63;;;;;;;18.53;40.55;102377.84;5134932;27;20118;-68
2021/11/10 01:19:55;;;;;;;9.13;4.03;;;;;;;18.51;40.34;102379.75;5135708;27;20522;-67
2021/11/10 01:22:20;;;;;;;8.65;4.00;;;;;;;18.49;40.55;102385.94;5135414;27;20027;-67
2021/11/10 01:24:46;;;;;;;7.45;3.70;;;;;;;18.48;40.21;102384.25;5134838;27;20482;-67
2021/11/10 01:27:12;;;;;;;6.80;3.72;;;;;;;18.47;40.68;102379.06;5135826;27;20062;-67
2021/11/10 01:29:38;;;;;;;6.75;3.50;;;;;;;18.47;40.33;102382.56;5136134;27;20035;-67
2021/11/10 01:32:04;;;;;;;7.53;3.97;;;;;;;18.46;40.21;102380.00;5134963;27;20031;-67
2021/11/10 01:34:29;;;;;;;6.60;3.72;;;;;;;18.44;40.40;102374.81;5136131;27;20023;-67
2021/11/10 01:36:55;;;;;;;8.52;3.78;;;;;;;18.43;40.44;102380.19;5139312;27;20023;-67
2021/11/10 01:39:22;;;;;;;6.72;3.72;;;;;;;18.43;40.61;102372.25;5137118;27;20027;-67
2021/11/10 01:41:51;;;;;;;7.55;3.38;;;;;;;18.42;40.48;102360.88;5135605;27;20030;-67
2021/11/10 01:44:23;;;;;;;8.10;3.92;;;;;;;18.41;40.31;102366.22;5135174;27;20023;-67
2021/11/10 01:46:51;;;;;;;6.60;3.60;;;;;;;18.40;40.26;102365.34;5134953;27;20031;-66
2021/11/10 01:49:16;;;;;;;8.27;3.90;;;;;;;18.38;40.36;102358.50;5137967;27;20522;-66
2021/11/10 01:51:49;;;;;;;6.55;3.70;;;;;;;18.38;40.39;102361.13;5136553;27;20128;-66
2021/11/10 01:54:19;;;;;;;6.30;3.60;;;;;;;18.38;40.48;102350.56;5134266;27;20023;-66
2021/11/10 01:56:45;;;;;;;10.77;3.75;;;;;;;18.37;40.23;102343.56;5135343;27;20428;-66
2021/11/10 01:59:26;;;;;;;10.90;4.30;;;;;;;18.36;40.25;102340.09;5134477;27;20030;-66
2021/11/10 02:01:51;;;;;;;6.35;3.53;;;;;;;18.34;40.16;102341.13;5134643;27;20037;-66
2021/11/10 02:04:16;;;;;;;6.05;3.63;;;;;;;18.33;40.42;102348.19;5134395;27;20027;-65
2021/11/10 02:06:42;;;;;;;7.30;4.13;;;;;;;18.33;40.33;102356.13;5133934;27;20141;-66
2021/11/10 02:09:10;;;;;;;7.07;3.90;;;;;;;18.34;40.35;102356.97;5134119;27;20382;-66
2021/11/10 02:11:38;;;;;;;8.07;3.97;;;;;;;18.33;39.98;102360.56;5134312;27;20065;-67
2021/11/10 02:14:04;;;;;;;7.50;3.42;;;;;;;18.31;40.16;102353.56;5133418;27;20127;-67
2021/11/10 02:16:29;;;;;;;6.97;3.83;;;;;;;18.30;40.30;102351.84;5134269;27;20037;-66
2021/11/10 02:18:54;;;;;;;6.47;3.80;;;;;;;18.29;39.93;102350.19;5134571;27;20425;-66
2021/11/10 02:21:21;;;;;;;6.32;3.83;;;;;;;18.28;39.97;102348.47;5133103;27;20470;-66
2021/11/10 02:23:50;;;;;;;6.68;4.10;;;;;;;18.27;40.37;102352.03;5134179;27;20098;-66
2021/11/10 02:26:22;;;;;;;6.40;3.42;;;;;;;18.29;40.33;102349.31;5134065;27;20050;-66
2021/11/10 02:28:47;;;;;;;6.53;3.85;;;;;;;18.28;40.18;102353.75;5132416;27;20417;-66
2021/11/10 02:31:12;;;;;;;8.02;3.50;;;;;;;18.31;39.99;102344.81;5133948;27;20023;-66
2021/11/10 02:33:38;;;;;;;6.90;3.90;;;;;;;18.33;39.88;102337.63;5134192;27;20039;-66
2021/11/10 02:36:06;;;;;;;7.38;3.72;;;;;;;18.34;40.13;102334.06;5132852;27;20030;-66
2021/11/10 02:38:35;;;;;;;7.20;3.65;;;;;;;18.36;40.00;102336.59;5133815;27;20478;-66
2021/11/10 02:41:01;;;;;;;6.18;3.65;;;;;;;18.37;39.71;102341.78;5133524;27;20111;-66
2021/11/10 02:43:27;;;;;;;6.43;3.70;;;;;;;18.38;39.83;102343.50;5132830;27;20056;-66
2021/11/10 02:45:54;;;;;;;6.90;3.72;;;;;;;18.40;39.96;102344.25;5133938;27;20023;-66
2021/11/10 02:48:20;;;;;;;6.38;3.40;;;;;;;18.40;39.66;102343.41;5133553;27;20081;-66
2021/11/10 02:50:45;;;;;;;6.60;3.42;;;;;;;18.41;39.48;102335.41;5132091;27;20065;-66
2021/11/10 02:53:12;;;;;;;6.93;4.03;;;;;;;18.42;39.77;102334.47;5133313;27;20031;-66
2021/11/10 02:55:38;;;;;;;6.18;3.53;;;;;;;18.42;39.74;102331.81;5132871;27;20431;-67
2021/11/10 02:58:04;;;;;;;8.27;3.97;;;;;;;18.42;39.80;102344.16;5131954;27;20039;-66
2021/11/10 03:00:29;;;;;;;7.30;3.72;;;;;;;18.42;39.58;102336.22;5133556;27;20447;-66
2021/11/10 03:02:56;;;;;;;6.40;3.67;;;;;;;18.42;39.86;102329.19;5133071;27;20358;-67
2021/11/10 03:05:22;;;;;;;7.78;3.95;;;;;;;18.41;39.70;102331.91;5133730;27;20035;-67
2021/11/10 03:07:48;;;;;;;7.22;3.80;;;;;;;18.42;39.27;102334.47;5133654;27;20417;-67
2021/11/10 03:10:14;;;;;;;6.90;3.47;;;;;;;18.41;39.59;102329.28;5132188;27;20039;-66
2021/11/10 03:12:40;;;;;;;6.07;3.40;;;;;;;18.41;39.46;102335.41;5133159;27;20505;-66
2021/11/10 03:15:06;;;;;;;8.05;3.88;;;;;;;18.40;39.43;102331.03;5133198;27;20035;-66
2021/11/10 03:17:32;;;;;;;7.45;4.32;;;;;;;18.40;39.43;102332.84;5132823;27;20065;-66
2021/11/10 03:19:57;;;;;;;8.35;4.00;;;;;;;18.40;39.56;102325.75;5133080;27;20432;-66
2021/11/10 03:22:22;;;;;;;7.72;4.15;;;;;;;18.39;39.46;102323.22;5133182;27;20033;-66
2021/11/10 03:24:49;;;;;;;8.05;4.20;;;;;;;18.41;39.65;102342.47;5132469;27;20043;-67
2021/11/10 03:27:15;;;;;;;8.50;3.70;;;;;;;18.39;39.39;102342.56;5133251;27;20094;-65
2021/11/10 03:29:40;;;;;;;7.25;4.13;;;;;;;18.41;39.32;102340.66;5133011;27;20422;-67
2021/11/10 03:32:08;;;;;;;7.30;3.72;;;;;;;18.42;39.38;102339.75;5132180;28;20027;-67
2021/11/10 03:34:34;;;;;;;6.28;3.50;;;;;;;18.42;39.23;102352.94;5133192;28;20035;-66
2021/11/10 03:36:59;;;;;;;5.80;3.50;;;;;;;18.42;39.21;102350.31;5132811;28;20057;-66
2021/11/10 03:39:25;;;;;;;7.40;3.85;;;;;;;18.42;39.19;102347.66;5132306;28;20019;-67
2021/11/10 03:41:50;;;;;;;6.75;3.92;;;;;;;18.43;38.88;102353.78;5132955;28;20035;-66
2021/11/10 03:44:25;;;;;;;6.80;3.92;;;;;;;18.43;39.06;102353.78;5132819;28;20983;-67
2021/11/10 03:46:50;;;;;;;6.95;3.53;;;;;;;18.41;39.15;102356.50;5126082;28;20459;-66
2021/11/10 03:49:16;;;;;;;6.70;3.78;;;;;;;18.43;38.98;102359.06;5132656;28;20118;-66
2021/11/10 03:51:42;;;;;;;6.70;3.55;;;;;;;18.41;39.03;102369.72;5133083;28;20035;-66
2021/11/10 03:54:07;;;;;;;8.63;3.78;;;;;;;18.42;39.15;102373.19;5131829;28;20106;-66
2021/11/10 03:56:35;;;;;;;8.15;4.13;;;;;;;18.42;39.03;102362.63;5133108;28;20065;-67
2021/11/10 03:59:01;;;;;;;7.35;3.80;;;;;;;18.41;38.66;102358.31;5131820;28;20110;-67
2021/11/10 04:01:26;;;;;;;7.18;3.80;;;;;;;18.39;39.11;102361.03;5132966;27;20122;-66
2021/11/10 04:03:52;;;;;;;7.00;3.85;;;;;;;18.39;38.81;102368.97;5136955;27;20363;-66
2021/11/10 04:06:20;;;;;;;7.93;3.97;;;;;;;18.38;38.88;102364.59;5135837;27;20023;-67
2021/11/10 04:08:46;;;;;;;7.15;3.72;;;;;;;18.39;39.00;102363.69;5136812;27;20027;-66
2021/11/10 04:11:11;;;;;;;6.45;3.60;;;;;;;18.38;38.84;102367.25;5136108;27;20474;-66
2021/11/10 04:13:36;;;;;;;6.28;3.75;;;;;;;18.36;38.75;102369.13;5136007;27;20045;-67
2021/11/10 04:16:02;;;;;;;7.15;3.72;;;;;;;18.35;38.77;102370.06;5136618;27;20035;-66
2021/11/10 04:18:32;;;;;;;7.60;3.85;;;;;;;18.36;39.00;102365.63;5136706;27;20415;-66
2021/11/10 04:21:03;;;;;;;6.57;3.83;;;;;;;18.36;38.79;102366.50;5135686;27;20032;-66
2021/11/10 04:23:30;;;;;;;7.22;3.78;;;;;;;18.36;39.02;102371.78;5136557;27;20023;-66
2021/11/10 04:25:56;;;;;;;9.32;4.15;;;;;;;18.37;38.90;102386.66;5136362;27;20053;-66
2021/11/10 04:28:22;;;;;;;7.25;3.72;;;;;;;18.37;38.90;102376.09;5135951;27;20102;-66
2021/11/10 04:30:49;;;;;;;6.10;3.65;;;;;;;18.38;38.47;102376.97;5136428;27;20474;-66
2021/11/10 04:33:14;;;;;;;5.40;3.60;;;;;;;18.37;38.62;102384.00;5136200;27;20051;-67
2021/11/10 04:35:41;;;;;;;6.88;4.00;;;;;;;18.39;38.60;102392.72;5135787;27;20532;-67
2021/11/10 04:38:07;;;;;;;5.82;3.65;;;;;;;18.38;38.43;102391.00;5136016;27;20485;-66
2021/11/10 04:40:35;;;;;;;7.50;3.80;;;;;;;18.34;38.71;102373.66;5136269;27;20023;-66
2021/11/10 04:43:00;;;;;;;7.47;3.85;;;;;;;18.36;38.51;102379.69;5135218;27;20383;-66
2021/11/10 04:45:32;;;;;;;6.80;3.70;;;;;;;18.37;38.37;102367.34;5136414;27;20031;-67
2021/11/10 04:47:58;;;;;;;9.80;3.95;;;;;;;18.37;38.46;102370.81;5136068;27;20015;-67
2021/11/10 04:50:23;;;;;;;7.10;3.70;;;;;;;18.37;38.70;102364.69;5135502;27;20015;-67
2021/11/10 04:52:49;;;;;;;6.97;4.10;;;;;;;18.36;38.36;102365.63;5136200;27;20026;-68
2021/11/10 04:55:14;;;;;;;6.65;3.90;;;;;;;18.36;38.55;102365.63;5135395;27;20023;-66
2021/11/10 04:57:40;;;;;;;7.00;3.80;;;;;;;18.34;38.77;102368.38;5136490;27;20034;-67
2021/11/10 05:00:15;;;;;;;6.15;3.78;;;;;;;18.33;38.72;102364.03;5135821;27;20082;-66
2021/11/10 05:02:41;;;;;;;6.72;3.92;;;;;;;18.32;38.80;102364.97;5135491;27;20518;-67
2021/11/10 05:05:07;;;;;;;6.68;3.78;;;;;;;18.32;38.64;102370.25;5135636;27;20501;-67
2021/11/10 05:07:34;;;;;;;6.18;3.88;;;;;;;18.31;38.68;102360.66;5136490;27;20051;-66
2021/11/10 05:09:59;;;;;;;6.50;3.78;;;;;;;18.31;38.40;102358.00;5135509;27;20091;-67
2021/11/10 05:12:30;;;;;;;7.78;4.05;;;;;;;18.31;38.87;102358.84;5135825;27;20490;-66
2021/11/10 05:14:56;;;;;;;7.40;3.90;;;;;;;18.31;38.24;102366.75;5135288;27;20069;-67
2021/11/10 05:17:23;;;;;;;7.07;3.78;;;;;;;18.32;38.72;102375.53;5135154;27;20050;-67
2021/11/10 05:19:49;;;;;;;6.80;3.72;;;;;;;18.34;38.24;102378.06;5135605;27;20027;-66
2021/11/10 05:22:15;;;;;;;6.43;3.78;;;;;;;18.34;38.63;102362.22;5135831;27;20142;-66
2021/11/10 05:24:43;;;;;;;6.55;3.80;;;;;;;18.33;38.60;102358.75;5135113;27;20422;-67
2021/11/10 05:27:10;;;;;;;7.72;3.60;;;;;;;18.33;38.06;102366.66;5135292;27;20027;-67
2021/11/10 05:29:38;;;;;;;5.63;3.47;;;;;;;18.35;38.37;102361.31;5135667;27;20031;-67
2021/11/10 05:32:06;;;;;;;6.75;3.67;;;;;;;18.34;38.11;102375.44;5134371;27;20095;-66
2021/11/10 05:34:32;;;;;;;7.25;3.88;;;;;;;18.32;38.20;102380.78;5135526;27;20122;-66
2021/11/10 05:36:57;;;;;;;6.55;3.30;;;;;;;18.34;38.13;102378.94;5135594;27;20050;-67
2021/11/10 05:39:22;;;;;;;6.57;3.70;;;;;;;18.33;38.11;102371.94;5135613;27;20444;-66
2021/11/10 05:41:48;;;;;;;6.95;3.53;;;;;;;18.34;38.14;102364.88;5135638;27;20015;-66
2021/11/10 05:44:14;;;;;;;6.13;3.55;;;;;;;18.34;38.33;102359.59;5134897;27;20106;-66
2021/11/10 05:46:41;;;;;;;6.15;3.58;;;;;;;18.34;38.11;102357.81;5134046;27;20079;-66
2021/11/10 05:49:07;;;;;;;5.53;3.30;;;;;;;18.34;38.30;102356.97;5134754;27;20034;-66
2021/11/10 05:51:32;;;;;;;7.32;3.55;;;;;;;18.31;38.37;102339.53;5134192;27;20015;-66
2021/11/10 05:53:57;;;;;;;5.53;3.45;;;;;;;18.35;38.11;102346.31;5134284;27;20054;-65
2021/11/10 05:56:26;;;;;;;6.20;3.55;;;;;;;18.37;38.35;102359.41;5134864;27;20022;-67
2021/11/10 05:58:57;;;;;;;7.60;3.70;;;;;;;18.36;37.88;102361.22;5133984;27;20031;-67
2021/11/10 06:01:22;;;;;;;5.93;3.40;;;;;;;18.37;38.03;102354.97;5134661;27;20058;-67
2021/11/10 06:03:47;;;;;;;8.20;3.78;;;;;;;18.38;37.99;102354.06;5134564;27;20046;-67
2021/11/10 06:06:13;;;;;;;6.97;3.92;;;;;;;18.36;37.91;102347.16;5133620;27;20023;-67
2021/11/10 06:08:41;;;;;;;4.97;3.17;;;;;;;18.38;37.72;102353.22;5134536;27;20015;-68
2021/11/10 06:11:08;;;;;;;6.53;3.55;;;;;;;18.36;38.04;102350.66;5134091;27;20059;-67
2021/11/10 06:13:35;;;;;;;7.97;3.50;;;;;;;18.37;38.31;102354.97;5133685;27;20041;-65
2021/11/10 06:16:00;;;;;;;6.10;3.63;;;;;;;18.38;38.47;102353.22;5133956;27;20023;-66
2021/11/10 06:18:31;;;;;;;6.07;3.70;;;;;;;18.38;38.96;102361.13;5134273;27;20047;-67
2021/11/10 06:21:08;;;;;;;6.75;3.40;;;;;;;18.41;40.01;102360.94;5133108;27;20027;-66
2021/11/10 06:23:34;;;;;;;5.90;3.65;;;;;;;18.42;40.40;102347.66;5134552;27;20034;-66
2021/11/10 06:25:59;;;;;;;5.32;3.30;;;;;;;18.46;40.87;102348.31;5133920;27;20019;-65
2021/11/10 06:28:25;;;;;;;6.95;3.42;;;;;;;18.47;40.96;102350.88;5133411;27;20080;-66
2021/11/10 06:30:50;;;;;;;7.13;3.35;;;;;;;18.49;41.53;102356.91;5134177;27;20244;-66
2021/11/10 06:33:16;;;;;;;5.45;2.95;;;;;;;18.52;41.45;102355.88;5133766;27;20035;-67
2021/11/10 06:35:41;;;;;;;6.28;3.15;;;;;;;18.56;41.75;102359.19;5133244;27;20019;-66
2021/11/10 06:38:13;;;;;;;6.30;3.28;;;;;;;18.57;41.86;102350.34;5133773;27;20027;-67
2021/11/10 06:40:38;;;;;;;5.13;2.75;;;;;;;18.60;41.67;102353.63;5133234;27;20028;-66
2021/11/10 06:43:03;;;;;;;5.03;2.92;;;;;;;18.61;41.77;102342.16;5133766;27;20030;-68
2021/11/10 06:45:29;;;;;;;6.53;2.77;;;;;;;18.63;41.52;102332.34;5134148;27;20398;-65
2021/11/10 06:47:57;;;;;;;5.43;2.85;;;;;;;18.65;41.40;102341.00;5133240;27;20324;-66
2021/11/10 06:50:22;;;;;;;5.38;2.97;;;;;;;18.67;41.58;102347.06;5134081;27;20354;-66
2021/11/10 06:52:48;;;;;;;5.43;3.03;;;;;;;18.68;41.68;102330.25;5133812;27;20084;-67
2021/11/10 06:55:13;;;;;;;5.90;2.65;;;;;;;18.67;41.63;102323.28;5133002;27;20045;-68
2021/11/10 06:57:39;;;;;;;5.53;3.15;;;;;;;18.71;41.56;102334.50;5133740;27;20500;-66
2021/11/10 07:00:07;;;;;;;6.03;2.83;;;;;;;18.74;41.33;102338.75;5133804;27;20061;-67
2021/11/10 07:02:38;;;;;;;6.05;3.40;;;;;;;18.77;41.48;102360.56;5132825;27;20110;-67
2021/11/10 07:05:04;;;;;;;4.88;2.55;;;;;;;18.77;41.44;102371.13;5133386;27;20023;-66
2021/11/10 07:07:30;;;;;;;5.10;2.90;;;;;;;18.81;41.18;102367.34;5133631;27;20023;-66
2021/11/10 07:09:58;;;;;;;5.45;2.88;;;;;;;18.82;41.26;102368.22;5132647;27;20071;-66
2021/11/10 07:12:24;;;;;;;6.57;3.40;;;;;;;18.83;41.22;102375.16;5133467;27;20059;-67
2021/11/10 07:14:51;;;;;;;5.20;2.78;;;;;;;18.85;41.29;102368.06;5133657;27;20043;-67
2021/11/10 07:17:20;;;;;;;5.38;3.03;;;;;;;18.87;41.19;102365.28;5132522;27;20164;-67
2021/11/10 07:19:46;;;;;;;6.20;2.67;;;;;;;18.85;41.00;102374.19;5133494;27;20027;-66
2021/11/10 07:22:12;;;;;;;5.55;3.00;;;;;;;18.88;41.22;102378.41;5133147;27;20035;-67
2021/11/10 07:24:37;;;;;;;5.13;2.92;;;;;;;18.90;41.16;102375.69;5132046;27;20417;-66
2021/11/10 07:27:03;;;;;;;4.93;2.85;;;;;;;18.90;41.28;102383.59;5133149;27;20072;-66
2021/11/10 07:29:30;;;;;;;6.20;2.97;;;;;;;18.91;40.84;102380.03;5133202;27;20047;-67
2021/11/10 07:31:58;;;;;;;5.95;2.50;;;;;;;18.93;41.00;102386.06;5132300;27;20496;-68
2021/11/10 07:34:23;;;;;;;6.53;3.35;;;;;;;18.89;39.34;102387.22;5133232;27;20043;-67
2021/11/10 07:36:49;;;;;;;7.85;3.33;;;;;;;18.89;39.92;102397.78;5132707;27;20019;-67
2021/11/10 07:39:15;;;;;;;6.03;3.33;;;;;;;18.90;40.01;102394.16;5132125;28;20046;-69
2021/11/10 07:41:40;;;;;;;6.10;2.85;;;;;;;18.93;40.11;102400.13;5132603;28;20039;-68
2021/11/10 07:44:08;;;;;;;5.95;3.10;;;;;;;18.94;40.33;102401.81;5132430;28;20456;-68
2021/11/10 07:46:33;;;;;;;5.13;3.03;;;;;;;18.97;39.94;102400.78;5132923;28;20520;-67
2021/11/10 07:48:59;;;;;;;5.65;2.97;;;;;;;18.97;39.90;102395.50;5132652;28;20023;-66
2021/11/10 07:51:25;;;;;;;6.70;3.78;;;;;;;18.97;38.48;102391.06;5132282;28;20027;-66
2021/11/10 07:53:50;;;;;;;6.65;3.38;;;;;;;18.95;39.07;102387.69;5132764;28;20035;-65
2021/11/10 07:56:16;;;;;;;8.05;3.50;;;;;;;18.96;39.38;102383.22;5132519;28;20043;-66
2021/11/10 07:58:44;;;;;;;6.55;2.95;;;;;;;18.97;40.07;102383.16;5132208;28;20015;-64
2021/11/10 08:01:16;;;;;;;7.68;3.42;;;;;;;19.01;40.12;102389.94;5132473;28;20529;-66
2021/11/10 08:03:44;;;;;;;6.15;2.97;;;;;;;19.02;40.49;102391.63;5132944;28;20024;-66
2021/11/10 08:06:09;;;;;;;4.90;3.00;;;;;;;19.05;40.45;102397.69;5131829;28;20023;-68
2021/11/10 08:08:35;;;;;;;5.22;2.75;;;;;;;19.07;40.57;102393.16;5132904;28;20035;-66
2021/11/10 08:11:02;;;;;;;5.13;3.00;;;;;;;19.08;40.62;102390.44;5132524;28;20039;-66
2021/11/10 08:13:28;;;;;;;6.30;2.58;;;;;;;19.10;40.44;102396.47;5132213;28;20054;-65
2021/11/10 08:15:57;;;;;;;5.68;2.97;;;;;;;19.12;40.49;102396.38;5133071;28;20049;-65
2021/11/10 08:18:34;;;;;;;5.65;3.03;;;;;;;19.13;40.84;102388.34;5132877;28;20111;-67
2021/11/10 08:21:00;;;;;;;5.80;2.78;;;;;;;19.16;40.72;102404.00;5131816;28;20125;-66
2021/11/10 08:23:26;;;;;;;5.47;2.70;;;;;;;19.17;40.82;102389.03;5132707;28;20031;-65
2021/11/10 08:25:52;;;;;;;5.22;2.75;;;;;;;19.18;40.85;102375.72;5132569;28;20087;-66
2021/11/10 08:28:21;;;;;;;5.18;2.92;;;;;;;19.21;40.91;102382.59;5131396;28;20091;-65
2021/11/10 08:30:50;;;;;;;5.70;2.63;;;;;;;19.21;41.01;102391.34;5132283;28;20019;-65
2021/11/10 08:33:17;;;;;;;4.82;2.67;;;;;;;19.24;41.08;102398.25;5131056;28;20023;-65
2021/11/10 08:35:42;;;;;;;6.15;2.70;;;;;;;19.24;40.99;102390.34;5132791;28;20403;-67
2021/11/10 08:38:08;;;;;;;7.20;2.80;;;;;;;19.25;41.21;102397.31;5132155;28;20050;-66
2021/11/10 08:40:33;;;;;;;5.70;2.83;;;;;;;19.27;41.19;102402.53;5131810;28;20500;-66
2021/11/10 08:42:59;;;;;;;5.30;2.80;;;;;;;19.24;41.08;102390.34;5132276;28;20114;-66
2021/11/10 08:45:32;;;;;;;4.45;2.65;;;;;;;19.29;41.01;102401.47;5132632;28;20023;-67
2021/11/10 08:47:57;;;;;;;6.28;2.65;;;;;;;19.30;40.82;102394.41;5131639;27;20102;-71
2021/11/10 08:50:26;;;;;;;6.00;2.90;;;;;;;19.35;40.46;102382.59;5138183;27;20058;-70
2021/11/10 08:52:53;;;;;;;5.55;2.70;;;;;;;19.47;40.52;102394.19;5137489;27;20051;-72
2021/11/10 08:55:18;;;;;;;6.90;2.72;;;;;;;19.54;40.38;102400.78;5135501;27;20130;-64
2021/11/10 08:57:45;;;;;;;6.43;2.80;;;;;;;19.54;40.34;102395.50;5135488;27;20047;-67
2021/11/10 09:00:14;;;;;;;6.50;2.95;;;;;;;19.53;40.77;102396.44;5135370;27;20015;-66
2021/11/10 09:02:40;;;;;;;6.22;2.60;;;;;;;19.50;40.43;102391.38;5134584;27;20026;-67
2021/11/10 09:05:08;;;;;;;6.60;2.92;;;;;;;19.50;40.33;102399.31;5135214;27;20027;-66
2021/11/10 09:07:34;;;;;;;5.28;2.67;;;;;;;19.49;40.32;102392.31;5135447;27;20454;-66
2021/11/10 09:10:00;;;;;;;5.75;3.13;;;;;;;19.53;39.83;102387.66;5136512;27;20110;-68
2021/11/10 09:12:25;;;;;;;7.13;3.03;;;;;;;19.58;39.57;102388.22;5137944;27;20100;-68
2021/11/10 09:14:51;;;;;;;6.38;3.00;;;;;;;19.65;39.42;102399.28;5137532;27;20031;-69
2021/11/10 09:17:16;;;;;;;6.25;3.20;;;;;;;19.70;39.24;102392.72;5135213;27;20043;-75
2021/11/10 09:19:42;;;;;;;7.57;3.38;;;;;;;19.77;39.41;102395.88;5136392;27;20035;-70
2021/11/10 09:22:07;;;;;;;7.88;3.25;;;;;;;19.82;39.07;102399.09;5136586;27;20492;-67
2021/11/10 09:24:39;;;;;;;6.75;3.42;;;;;;;19.89;39.03;102402.19;5135917;27;20039;-65
2021/11/10 09:27:05;;;;;;;6.65;3.10;;;;;;;19.91;38.92;102398.47;5135796;27;20122;-69
2021/11/10 09:29:31;;;;;;;5.82;3.20;;;;;;;19.95;38.46;102396.50;5134779;27;20102;-72
2021/11/10 09:31:58;;;;;;;6.43;3.30;;;;;;;19.92;39.02;102380.81;5135303;27;20045;-68
2021/11/10 09:34:23;;;;;;;6.75;3.25;;;;;;;19.90;39.02;102383.56;5135145;27;20308;-67
2021/11/10 09:36:51;;;;;;;6.57;3.20;;;;;;;19.85;39.15;102379.50;5134371;27;20026;-66
2021/11/10 09:39:18;;;;;;;6.35;3.15;;;;;;;19.79;39.47;102385.19;5134710;27;20402;-68
2021/11/10 09:41:49;;;;;;;5.43;3.00;;;;;;;19.78;39.55;102387.00;5136220;27;20019;-71
2021/11/10 09:44:15;;;;;;;5.78;3.03;;;;;;;19.79;39.45;102383.41;5134371;27;20019;-73
2021/11/10 09:46:41;;;;;;;7.10;3.35;;;;;;;19.83;39.04;102387.53;5136080;27;20466;-74
2021/11/10 09:49:09;;;;;;;9.38;3.83;;;;;;;19.83;39.25;102384.88;5135959;27;20038;-71
2021/11/10 09:51:35;;;;;;;6.22;3.22;;;;;;;19.86;39.46;102400.56;5135475;27;20093;-72
2021/11/10 09:54:03;;;;;;;5.95;3.25;;;;;;;19.90;39.27;102395.91;5134624;27;20124;-73
2021/11/10 09:56:29;;;;;;;7.20;3.20;;;;;;;19.91;39.50;102389.69;5135703;27;20035;-71
2021/11/10 09:58:55;;;;;;;7.32;3.42;;;;;;;19.95;39.53;102396.50;5134261;27;20080;-69
2021/11/10 10:01:21;;;;;;;5.93;2.90;;;;;;;19.98;39.51;102398.06;5135304;27;20022;-70
2021/11/10 10:03:50;;;;;;;5.80;2.97;;;;;;;20.02;39.46;102400.44;5135156;27;20033;-71
2021/11/10 10:06:16;;;;;;;6.50;3.20;;;;;;;20.04;39.72;102392.38;5133490;27;20478;-66
2021/11/10 10:08:45;;;;;;;6.40;2.90;;;;;;;20.06;39.78;102390.47;5134904;27;20428;-67
2021/11/10 10:11:11;;;;;;;11.88;3.53;;;;;;;20.05;39.83;102391.44;5133904;27;20486;-70
2021/11/10 10:13:37;;;;;;;7.15;2.90;;;;;;;20.02;40.31;102399.59;5134157;27;20054;-73
2021/11/10 10:16:02;;;;;;;7.28;3.05;;;;;;;19.98;40.11;102398.06;5133376;27;20040;-70
2021/11/10 10:18:30;;;;;;;6.43;3.75;;;;;;;20.00;40.35;102401.50;5134422;27;20023;-71
2021/11/10 10:20:57;;;;;;;7.80;3.45;;;;;;;20.01;40.32;102405.81;5133428;27;20375;-70
2021/11/10 10:23:26;;;;;;;7.03;3.17;;;;;;;20.00;40.35;102404.97;5134937;27;20359;-71
2021/11/10 10:25:54;;;;;;;7.95;3.25;;;;;;;20.00;40.51;102409.44;5133813;27;20027;-71
2021/11/10 10:28:26;;;;;;;7.75;3.40;;;;;;;20.00;40.55;102417.38;5133980;27;20034;-73
2021/11/10 10:30:57;;;;;;;6.55;3.15;;;;;;;19.96;40.80;102416.69;5134503;27;20023;-71
2021/11/10 10:33:25;;;;;;;6.07;2.95;;;;;;;19.96;40.71;102419.34;5133630;27;20045;-67
2021/11/10 10:36:03;;;;;;;6.80;3.17;;;;;;;19.90;40.96;102414.44;5133783;27;20035;-65
2021/11/10 10:38:52;;;;;;;6.03;2.78;;;;;;;19.86;41.00;102420.91;5133516;27;20509;-68
2021/11/10 10:41:26;;;;;;;6.57;3.65;;;;;;;19.82;41.14;102420.25;5132589;27;20165;-66
2021/11/10 10:43:54;;;;;;;6.55;3.00;;;;;;;19.79;41.37;102416.94;5133749;27;20040;-65
2021/11/10 10:46:26;;;;;;;6.72;2.83;;;;;;;19.75;41.57;102408.31;5132984;27;20030;-67
2021/11/10 10:48:51;;;;;;;6.22;3.08;;;;;;;19.71;41.64;102418.25;5132574;27;20042;-67
2021/11/10 10:51:18;;;;;;;6.85;3.42;;;;;;;19.68;41.42;102418.44;5133208;27;20505;-67
2021/11/10 10:53:55;;;;;;;11.40;3.43;;;;;;;19.64;41.73;102398.41;5134762;27;20035;-71
2021/11/10 10:56:48;;;;;;;;;;;;;;;;;;;;;
2021/11/10 10:59:35;;;;;;;8.48;2.90;;;;;;;19.77;41.25;102398.50;5135487;27;20035;-72
2021/11/10 11:02:07;;;;;;;6.13;3.30;;;;;;;19.88;41.22;102398.66;5133700;27;20043;-77
2021/11/10 11:04:34;;;;;;;5.60;2.70;;;;;;;19.93;41.46;102387.78;5136590;27;20095;-76
2021/11/10 11:07:03;;;;;;;6.53;2.92;;;;;;;19.94;41.05;102385.03;5135992;27;20517;-74
2021/11/10 11:09:40;;;;;;;7.40;3.40;;;;;;;19.96;40.99;102379.66;5134732;27;20149;-76
2021/11/10 11:12:20;;;;;;;7.57;3.45;;;;;;;19.98;40.66;102376.91;5132487;27;20054;-71
2021/11/10 11:15:06;;;;;;;7.38;3.20;;;;;;;19.97;40.80;102376.06;5133584;27;20492;-72
2021/11/10 11:17:46;;;;;;;5.78;3.03;;;;;;;19.91;41.01;102379.09;5132208;27;20088;-69
2021/11/10 11:20:19;;;;;;;6.47;2.92;;;;;;;19.89;41.09;102381.00;5132254;27;20054;-70
2021/11/10 11:22:44;;;;;;;10.10;5.00;;;;;;;19.75;39.37;102373.94;5132384;27;20033;-68
2021/11/10 11:25:19;;;;;;;8.82;5.15;;;;;;;19.58;39.68;102362.63;5132440;27;20113;-67
2021/11/10 11:27:58;;;;;;;6.88;4.80;;;;;;;19.48;40.25;102365.97;5132897;27;20023;-69